createdAt,value
2022-08-06T00:00:06.767Z,0.50
2022-08-06T00:02:35.632Z,0.60
2022-08-06T00:05:06.508Z,0.73
2022-08-06T00:07:44.558Z,1.10
2022-08-06T00:10:12.809Z,0.40
2022-08-06T00:12:40.697Z,0.40
2022-08-06T00:15:12.440Z,0.52
2022-08-06T00:17:43.746Z,0.40
2022-08-06T00:20:11.722Z,0.30
2022-08-06T00:22:53.760Z,0.40
2022-08-06T00:25:20.703Z,0.40
2022-08-06T00:27:51.234Z,0.50
2022-08-06T00:30:22.228Z,0.50
2022-08-06T00:32:51.984Z,0.52
2022-08-06T00:35:23.423Z,0.50
2022-08-06T00:37:57.521Z,0.60
2022-08-06T00:40:30.007Z,0.30
2022-08-06T00:43:06.021Z,0.47
2022-08-06T00:45:38.058Z,0.30
2022-08-06T00:48:31.026Z,0.28
2022-08-06T00:51:01.035Z,0.50
2022-08-06T00:53:34.304Z,0.40
2022-08-06T00:56:08.499Z,0.80
2022-08-06T00:58:40.334Z,0.40
2022-08-06T01:01:16.911Z,0.40
2022-08-06T01:03:50.866Z,0.40
2022-08-06T01:06:56.480Z,0.40
2022-08-06T01:09:10.034Z,0.45
2022-08-06T01:11:37.633Z,0.60
2022-08-06T01:14:05.979Z,0.45
2022-08-06T01:16:40.350Z,0.40
2022-08-06T01:21:21.028Z,0.32
2022-08-06T01:22:37.387Z,0.50
2022-08-06T01:25:09.700Z,0.50
2022-08-06T01:27:58.129Z,0.47
2022-08-06T01:30:29.871Z,0.40
2022-08-06T01:33:04.549Z,0.45
2022-08-06T01:35:47.985Z,0.40
2022-08-06T01:38:26.382Z,0.75
2022-08-06T01:40:53.561Z,0.50
2022-08-06T01:44:04.651Z,0.60
2022-08-06T01:46:09.443Z,0.82
2022-08-06T01:48:38.350Z,0.50
2022-08-06T01:51:17.227Z,0.63
2022-08-06T01:54:06.230Z,0.40
2022-08-06T01:56:56.928Z,0.60
2022-08-06T01:59:27.884Z,0.52
2022-08-06T02:01:58.255Z,0.30
2022-08-06T02:04:28.377Z,0.40
2022-08-06T02:06:56.703Z,0.60
2022-08-06T02:09:33.538Z,0.40
2022-08-06T02:12:08.148Z,0.40
2022-08-06T02:14:56.181Z,0.60
2022-08-06T02:17:26.840Z,0.40
2022-08-06T02:20:18.969Z,0.50
2022-08-06T02:23:04.089Z,0.50
2022-08-06T02:25:34.503Z,0.40
2022-08-06T02:28:01.971Z,0.40
2022-08-06T02:30:37.114Z,0.60
2022-08-06T02:33:10.553Z,0.50
2022-08-06T02:35:51.147Z,0.57
2022-08-06T02:38:52.246Z,0.60
2022-08-06T02:41:53.772Z,0.47
2022-08-06T02:44:31.722Z,0.35
2022-08-06T02:47:03.352Z,0.30
2022-08-06T02:49:34.622Z,0.40
2022-08-06T02:52:31.523Z,0.40
2022-08-06T02:55:07.510Z,0.50
2022-08-06T02:57:51.405Z,0.47
2022-08-06T03:00:19.541Z,0.50
2022-08-06T03:02:47.163Z,0.50
2022-08-06T03:05:19.441Z,0.45
2022-08-06T03:08:07.731Z,0.38
2022-08-06T03:10:37.691Z,0.40
2022-08-06T03:13:10.826Z,0.30
2022-08-06T03:15:57.993Z,0.40
2022-08-06T03:18:26.486Z,0.50
2022-08-06T03:20:55.371Z,0.40
2022-08-06T03:23:26.876Z,0.57
2022-08-06T03:25:55.288Z,0.40
2022-08-06T03:28:22.963Z,0.70
2022-08-06T03:30:55.829Z,0.60
2022-08-06T03:33:29.473Z,0.45
2022-08-06T03:36:11.083Z,0.60
2022-08-06T03:38:46.337Z,0.43
2022-08-06T03:41:21.171Z,0.60
2022-08-06T03:44:04.455Z,0.50
2022-08-06T03:46:56.551Z,0.60
2022-08-06T03:49:41.039Z,0.60
2022-08-06T03:52:12.758Z,0.57
2022-08-06T03:54:50.511Z,0.50
2022-08-06T03:57:29.649Z,0.40
2022-08-06T04:00:02.229Z,0.50
2022-08-06T04:02:45.905Z,0.55
2022-08-06T04:05:22.803Z,0.50
2022-08-06T04:07:54.716Z,0.40
2022-08-06T04:10:33.318Z,1.25
2022-08-06T04:13:38.089Z,0.50
2022-08-06T04:15:51.291Z,0.50
2022-08-06T04:18:25.445Z,0.50
2022-08-06T04:21:16.802Z,0.70
2022-08-06T04:23:45.093Z,0.57
2022-08-06T04:26:15.448Z,0.52
2022-08-06T04:28:52.736Z,0.70
2022-08-06T04:31:30.658Z,0.57
2022-08-06T04:34:11.675Z,0.60
2022-08-06T04:36:40.435Z,0.52
2022-08-06T04:39:15.217Z,0.57
2022-08-06T04:41:42.782Z,0.75
2022-08-06T04:44:13.571Z,0.43
2022-08-06T04:46:41.425Z,0.73
2022-08-06T04:49:08.213Z,0.70
2022-08-06T04:52:46.835Z,0.55
2022-08-06T04:54:29.934Z,0.60
2022-08-06T04:56:56.932Z,0.60
2022-08-06T04:59:25.459Z,0.75
2022-08-06T05:02:01.084Z,0.57
2022-08-06T05:04:32.661Z,0.40
2022-08-06T05:07:13.795Z,0.60
2022-08-06T05:09:43.723Z,1.52
2022-08-06T05:12:29.978Z,0.50
2022-08-06T05:15:41.500Z,0.65
2022-08-06T05:19:15.974Z,0.65
2022-08-06T05:21:05.685Z,0.52
2022-08-06T05:23:40.629Z,0.50
2022-08-06T05:26:24.939Z,0.70
2022-08-06T05:28:52.762Z,0.70
2022-08-06T05:31:38.688Z,0.65
2022-08-06T05:34:11.094Z,0.60
2022-08-06T05:36:38.281Z,0.50
2022-08-06T05:39:06.191Z,0.60
2022-08-06T05:41:39.520Z,0.63
2022-08-06T05:44:07.767Z,0.57
2022-08-06T05:46:38.473Z,0.93
2022-08-06T05:49:57.631Z,0.70
2022-08-06T05:52:14.897Z,0.85
2022-08-06T05:54:45.852Z,0.60
2022-08-06T05:57:41.949Z,0.65
2022-08-06T06:00:41.666Z,1.00
2022-08-06T06:03:04.573Z,0.60
2022-08-06T06:06:04.088Z,0.50
2022-08-06T06:08:37.879Z,0.60
2022-08-06T06:11:10.141Z,0.55
2022-08-06T06:13:40.323Z,0.60
2022-08-06T06:16:29.914Z,0.60
2022-08-06T06:19:16.301Z,0.65
2022-08-06T06:22:05.405Z,0.75
2022-08-06T06:24:48.185Z,0.60
2022-08-06T06:27:42.870Z,0.65
2022-08-06T06:30:39.721Z,0.70
2022-08-06T06:33:41.174Z,0.70
2022-08-06T06:36:16.738Z,0.55
2022-08-06T06:39:19.549Z,0.40
2022-08-06T06:41:57.058Z,0.50
2022-08-06T06:45:08.133Z,0.70
2022-08-06T06:47:28.012Z,0.73
2022-08-06T06:50:04.001Z,0.50
2022-08-06T06:52:38.760Z,0.70
2022-08-06T06:55:19.120Z,0.40
2022-08-06T06:57:53.638Z,0.65
2022-08-06T07:00:45.256Z,0.45
2022-08-06T07:03:10.322Z,0.40
2022-08-06T07:06:04.885Z,0.35
2022-08-06T07:08:30.226Z,0.55
2022-08-06T07:11:06.057Z,0.47
2022-08-06T07:13:46.760Z,0.40
2022-08-06T07:16:35.929Z,0.50
2022-08-06T07:19:05.083Z,0.70
2022-08-06T07:21:32.006Z,0.63
2022-08-06T07:24:06.454Z,0.40
2022-08-06T07:26:50.713Z,0.40
2022-08-06T07:29:48.676Z,0.45
2022-08-06T07:32:05.821Z,0.50
2022-08-06T07:34:34.009Z,0.50
2022-08-06T07:37:01.274Z,0.40
2022-08-06T07:39:39.557Z,0.40
2022-08-06T07:42:13.611Z,0.93
2022-08-06T07:44:56.283Z,0.80
2022-08-06T07:47:46.967Z,0.50
2022-08-06T07:50:23.706Z,0.40
2022-08-06T07:52:54.686Z,0.30
2022-08-06T07:55:26.227Z,0.50
2022-08-06T07:57:59.429Z,0.40
2022-08-06T08:00:27.562Z,0.45
2022-08-06T08:03:43.284Z,0.30
2022-08-06T08:06:22.066Z,0.40
2022-08-06T08:09:15.722Z,0.50
2022-08-06T08:12:17.215Z,0.50
2022-08-06T08:14:47.499Z,0.50
2022-08-06T08:17:16.953Z,0.45
2022-08-06T08:20:04.062Z,0.50
2022-08-06T08:22:48.571Z,0.40
2022-08-06T08:25:39.677Z,0.30
2022-08-06T08:28:12.071Z,0.82
2022-08-06T08:30:41.128Z,0.40
2022-08-06T08:33:15.218Z,0.40
2022-08-06T08:35:49.884Z,0.40
2022-08-06T08:38:29.923Z,0.40
2022-08-06T08:40:58.402Z,0.30
2022-08-06T08:43:40.858Z,0.30
2022-08-06T08:46:30.703Z,0.60
2022-08-06T08:49:01.981Z,0.80
2022-08-06T08:51:29.810Z,0.40
2022-08-06T08:54:06.922Z,0.30
2022-08-06T08:57:10.525Z,0.28
2022-08-06T08:59:59.365Z,0.57
2022-08-06T09:02:11.243Z,0.40
2022-08-06T09:04:38.783Z,0.30
2022-08-06T09:07:05.825Z,0.32
2022-08-06T09:09:35.911Z,0.20
2022-08-06T09:12:19.514Z,0.30
2022-08-06T09:14:49.156Z,0.20
2022-08-06T09:18:12.382Z,0.40
2022-08-06T09:20:03.096Z,0.40
2022-08-06T09:22:34.179Z,0.50
2022-08-06T09:25:07.596Z,0.40
2022-08-06T09:27:48.278Z,0.68
2022-08-06T09:30:26.931Z,0.38
2022-08-06T09:32:57.849Z,0.40
2022-08-06T09:35:44.183Z,0.30
2022-08-06T09:38:16.954Z,0.40
2022-08-06T09:41:03.703Z,0.40
2022-08-06T09:43:34.360Z,0.30
2022-08-06T09:46:56.665Z,0.50
2022-08-06T09:49:48.208Z,0.45
2022-08-06T09:52:15.076Z,0.22
2022-08-06T09:54:44.502Z,0.25
2022-08-06T09:57:17.681Z,0.30
2022-08-06T09:59:50.620Z,0.45
2022-08-06T10:02:23.787Z,0.50
2022-08-06T10:05:19.179Z,0.30
2022-08-06T10:08:02.848Z,0.25
2022-08-06T10:10:51.309Z,0.30
2022-08-06T10:13:39.227Z,0.47
2022-08-06T10:16:17.141Z,0.30
2022-08-06T10:18:55.826Z,0.35
2022-08-06T10:21:41.298Z,0.28
2022-08-06T10:24:10.069Z,0.52
2022-08-06T10:26:36.909Z,0.45
2022-08-06T10:29:06.693Z,0.40
2022-08-06T10:31:37.755Z,0.50
2022-08-06T10:34:17.123Z,0.40
2022-08-06T10:36:55.065Z,0.30
2022-08-06T10:40:08.322Z,0.30
2022-08-06T10:42:22.377Z,0.40
2022-08-06T10:44:54.357Z,0.25
2022-08-06T10:49:01.632Z,0.20
2022-08-06T10:50:30.482Z,0.30
2022-08-06T10:52:59.698Z,0.30
2022-08-06T10:55:34.232Z,0.38
2022-08-06T10:58:13.117Z,0.30
2022-08-06T11:00:45.094Z,0.30
2022-08-06T11:03:33.143Z,0.30
2022-08-06T11:06:14.734Z,0.30
2022-08-06T11:08:59.688Z,0.20
2022-08-06T11:12:05.876Z,0.35
2022-08-06T11:14:38.418Z,0.40
2022-08-06T11:17:08.236Z,0.40
2022-08-06T11:19:47.026Z,0.30
2022-08-06T11:22:37.693Z,0.43
2022-08-06T11:25:26.108Z,0.35
2022-08-06T11:28:05.314Z,0.32
2022-08-06T11:30:46.346Z,0.30
2022-08-06T11:33:34.792Z,0.40
2022-08-06T11:36:05.321Z,0.50
2022-08-06T11:38:48.575Z,0.30
2022-08-06T11:41:55.503Z,0.35
2022-08-06T11:44:24.676Z,0.30
2022-08-06T11:47:08.358Z,0.40
2022-08-06T11:49:43.581Z,0.28
2022-08-06T11:52:39.720Z,0.45
2022-08-06T11:55:08.926Z,0.30
2022-08-06T11:57:46.434Z,0.30
2022-08-06T12:00:18.730Z,0.50
2022-08-06T12:02:53.287Z,0.22
2022-08-06T12:05:21.379Z,0.28
2022-08-06T12:08:38.506Z,0.28
2022-08-06T12:11:24.869Z,0.95
2022-08-06T12:13:57.708Z,0.30
2022-08-06T12:16:30.379Z,0.60
2022-08-06T12:18:57.228Z,0.47
2022-08-06T12:21:25.412Z,0.30
2022-08-06T12:23:57.050Z,0.30
2022-08-06T12:26:33.089Z,0.30
2022-08-06T12:29:05.585Z,0.40
2022-08-06T12:31:44.169Z,0.22
2022-08-06T12:34:28.451Z,0.30
2022-08-06T12:37:00.217Z,0.32
2022-08-06T12:39:48.061Z,0.55
2022-08-06T12:42:53.323Z,0.45
2022-08-06T12:45:32.815Z,0.30
2022-08-06T12:48:03.700Z,0.30
2022-08-06T12:50:33.465Z,0.40
2022-08-06T12:53:11.327Z,0.30
2022-08-06T12:55:46.843Z,0.30
2022-08-06T12:58:43.797Z,0.30
2022-08-06T13:02:07.369Z,0.25
2022-08-06T13:04:06.827Z,0.40
2022-08-06T13:06:37.102Z,0.20
2022-08-06T13:09:07.864Z,0.30
2022-08-06T13:11:37.186Z,0.50
2022-08-06T13:14:18.383Z,0.20
2022-08-06T13:16:55.064Z,0.30
2022-08-06T13:19:33.221Z,0.30
2022-08-06T13:22:09.318Z,0.30
2022-08-06T13:25:04.060Z,0.85
2022-08-06T13:27:35.495Z,0.30
2022-08-06T13:30:33.369Z,0.30
2022-08-06T13:32:51.015Z,0.30
2022-08-06T13:35:27.226Z,0.20
2022-08-06T13:38:16.161Z,0.28
2022-08-06T13:40:57.488Z,0.30
2022-08-06T13:43:42.351Z,0.30
2022-08-06T13:46:20.403Z,0.40
2022-08-06T13:48:55.258Z,0.30
2022-08-06T13:51:28.830Z,0.32
2022-08-06T13:53:58.273Z,0.30
2022-08-06T13:56:28.708Z,0.30
2022-08-06T13:59:00.299Z,0.30
2022-08-06T14:01:34.934Z,0.28
2022-08-06T14:04:18.338Z,0.30
2022-08-06T14:06:46.741Z,0.40
2022-08-06T14:09:20.687Z,0.20
2022-08-06T14:11:53.955Z,0.30
2022-08-06T14:14:23.377Z,0.38
2022-08-06T14:16:51.700Z,0.30
2022-08-06T14:20:16.081Z,0.25
2022-08-06T14:22:05.351Z,0.50
2022-08-06T14:24:38.991Z,0.45
2022-08-06T14:27:15.698Z,0.30
2022-08-06T14:30:26.934Z,0.28
2022-08-06T14:32:32.488Z,0.40
2022-08-06T14:35:03.511Z,0.30
2022-08-06T14:37:43.408Z,0.30
2022-08-06T14:40:32.496Z,0.30
2022-08-06T14:43:19.431Z,0.30
2022-08-06T14:45:47.040Z,0.55
2022-08-06T14:48:15.975Z,0.20
2022-08-06T14:50:42.991Z,0.50
2022-08-06T14:53:16.450Z,0.30
2022-08-06T14:56:07.350Z,0.30
2022-08-06T14:58:30.823Z,0.32
2022-08-06T15:00:57.806Z,0.30
2022-08-06T15:03:27.707Z,0.30
2022-08-06T15:06:06.509Z,0.25
2022-08-06T15:08:37.526Z,0.40
2022-08-06T15:11:18.354Z,0.30
2022-08-06T15:13:51.396Z,0.30
2022-08-06T15:16:47.109Z,0.22
2022-08-06T15:19:28.997Z,0.43
2022-08-06T15:21:57.694Z,0.25
2022-08-06T15:24:25.441Z,0.30
2022-08-06T15:26:52.434Z,0.20
2022-08-06T15:29:25.730Z,0.30
2022-08-06T15:31:52.509Z,0.28
2022-08-06T15:34:20.186Z,0.20
2022-08-06T15:36:59.034Z,0.20
2022-08-06T15:39:52.316Z,0.30
2022-08-06T15:42:15.555Z,0.30
2022-08-06T15:44:44.766Z,0.30
2022-08-06T15:47:11.382Z,0.35
2022-08-06T15:49:56.977Z,0.30
2022-08-06T15:52:28.454Z,0.30
2022-08-06T15:54:57.970Z,0.40
2022-08-06T15:58:04.578Z,0.50
2022-08-06T16:00:17.646Z,0.30
2022-08-06T16:02:50.693Z,0.70
2022-08-06T16:05:32.592Z,0.30
2022-08-06T16:08:07.557Z,0.30
2022-08-06T16:10:37.697Z,0.80
2022-08-06T16:13:07.742Z,0.43
2022-08-06T16:15:36.624Z,0.40
2022-08-06T16:18:09.694Z,0.30
2022-08-06T16:20:52.611Z,0.40
2022-08-06T16:23:55.607Z,0.20
2022-08-06T16:26:15.971Z,0.35
2022-08-06T16:28:52.897Z,0.32
2022-08-06T16:31:20.415Z,0.40
2022-08-06T16:33:53.646Z,0.40
2022-08-06T16:36:21.564Z,0.40
2022-08-06T16:38:59.634Z,0.30
2022-08-06T16:41:26.316Z,0.40
2022-08-06T16:44:13.105Z,0.30
2022-08-06T16:46:40.505Z,0.30
2022-08-06T16:49:10.259Z,0.55
2022-08-06T16:52:42.331Z,0.43
2022-08-06T16:54:44.047Z,0.38
2022-08-06T16:57:11.273Z,0.20
2022-08-06T16:59:42.380Z,0.30
2022-08-06T17:02:28.359Z,0.35
2022-08-06T17:04:55.159Z,0.20
2022-08-06T17:07:40.167Z,0.40
2022-08-06T17:10:25.758Z,0.40
2022-08-06T17:12:57.757Z,0.40
2022-08-06T17:15:36.189Z,0.40
2022-08-06T17:18:04.715Z,0.60
2022-08-06T17:20:31.593Z,0.40
2022-08-06T17:23:00.028Z,0.40
2022-08-06T17:25:51.317Z,0.30
2022-08-06T17:28:15.207Z,0.40
2022-08-06T17:30:43.909Z,0.40
2022-08-06T17:33:11.011Z,0.35
2022-08-06T17:36:30.721Z,0.30
2022-08-06T17:38:28.002Z,0.40
2022-08-06T17:40:54.735Z,0.20
2022-08-06T17:43:54.827Z,0.30
2022-08-06T17:46:24.981Z,0.40
2022-08-06T17:48:53.610Z,0.40
2022-08-06T17:51:21.844Z,0.40
2022-08-06T17:53:53.869Z,0.40
2022-08-06T17:56:29.342Z,0.40
2022-08-06T17:59:11.688Z,0.43
2022-08-06T18:01:49.358Z,0.40
2022-08-06T18:04:22.509Z,0.40
2022-08-06T18:06:58.268Z,0.30
2022-08-06T18:10:12.243Z,0.30
2022-08-06T18:12:13.020Z,0.50
2022-08-06T18:14:41.254Z,0.40
2022-08-06T18:17:16.988Z,0.40
2022-08-06T18:19:44.348Z,0.40
2022-08-06T18:22:12.285Z,0.70
2022-08-06T18:24:53.528Z,0.30
2022-08-06T18:27:54.470Z,0.30
2022-08-06T18:30:30.023Z,1.02
2022-08-06T18:33:03.768Z,0.40
2022-08-06T18:35:33.744Z,0.40
2022-08-06T18:38:18.574Z,0.60
2022-08-06T18:40:57.125Z,0.40
2022-08-06T18:43:55.082Z,0.32
2022-08-06T18:46:13.400Z,0.60
2022-08-06T18:48:42.219Z,0.50
2022-08-06T18:51:13.747Z,0.50
2022-08-06T18:54:01.391Z,0.52
2022-08-06T18:56:29.946Z,0.40
2022-08-06T18:58:58.387Z,0.45
2022-08-06T19:01:25.976Z,0.47
2022-08-06T19:03:55.203Z,0.57
2022-08-06T19:06:29.367Z,0.60
2022-08-06T19:08:58.186Z,0.50
2022-08-06T19:11:38.686Z,0.65
2022-08-06T19:14:19.386Z,0.50
2022-08-06T19:16:48.784Z,0.40
2022-08-06T19:19:24.696Z,0.55
2022-08-06T19:22:09.612Z,0.47
2022-08-06T19:24:39.527Z,0.63
2022-08-06T19:27:07.295Z,0.60
2022-08-06T19:29:58.722Z,0.50
2022-08-06T19:32:27.685Z,0.60
2022-08-06T19:34:55.934Z,0.70
2022-08-06T19:37:59.295Z,0.75
2022-08-06T19:40:28.603Z,0.63
2022-08-06T19:44:27.767Z,0.90
2022-08-06T19:46:29.208Z,0.70
2022-08-06T19:48:29.578Z,0.73
2022-08-06T19:50:56.733Z,0.90
2022-08-06T19:53:23.705Z,1.10
2022-08-06T19:56:06.215Z,0.95
2022-08-06T19:58:36.677Z,0.80
2022-08-06T20:01:32.555Z,0.80
2022-08-06T20:03:58.013Z,0.90
2022-08-06T20:06:30.426Z,0.73
2022-08-06T20:09:29.653Z,0.65
2022-08-06T20:12:02.991Z,0.90
2022-08-06T20:14:32.055Z,1.13
2022-08-06T20:17:00.082Z,0.98
2022-08-06T20:20:06.647Z,0.90
2022-08-06T20:22:15.126Z,0.50
2022-08-06T20:24:42.194Z,0.50
2022-08-06T20:27:09.288Z,0.57
2022-08-06T20:30:05.205Z,0.63
2022-08-06T20:32:24.770Z,0.50
2022-08-06T20:34:52.845Z,0.60
2022-08-06T20:37:20.164Z,0.50
2022-08-06T20:39:48.509Z,0.47
2022-08-06T20:42:19.964Z,0.50
2022-08-06T20:44:51.829Z,0.50
2022-08-06T20:47:45.829Z,0.50
2022-08-06T20:50:09.010Z,0.63
2022-08-06T20:52:38.515Z,0.60
2022-08-06T20:55:07.831Z,0.63
2022-08-06T20:57:37.364Z,0.60
2022-08-06T21:00:17.258Z,1.02
2022-08-06T21:02:54.453Z,0.70
2022-08-06T21:05:38.031Z,0.70
2022-08-06T21:08:15.381Z,0.80
2022-08-06T21:10:42.632Z,0.50
2022-08-06T21:13:14.787Z,0.80
2022-08-06T21:16:13.446Z,0.63
2022-08-06T21:18:41.764Z,0.60
2022-08-06T21:21:08.933Z,0.63
2022-08-06T21:23:54.991Z,0.68
2022-08-06T21:26:24.907Z,0.80
2022-08-06T21:28:54.698Z,0.70
2022-08-06T21:31:23.222Z,0.77
2022-08-06T21:33:54.507Z,0.70
2022-08-06T21:36:26.590Z,0.60
2022-08-06T21:38:57.199Z,0.77
2022-08-06T21:41:30.037Z,0.50
2022-08-06T21:44:16.355Z,0.70
2022-08-06T21:46:50.212Z,0.65
2022-08-06T21:50:00.067Z,1.38
2022-08-06T21:52:11.897Z,0.60
2022-08-06T21:54:43.091Z,0.90
2022-08-06T21:57:12.188Z,0.80
2022-08-06T21:59:46.481Z,0.88
2022-08-06T22:02:21.794Z,0.65
2022-08-06T22:05:00.242Z,1.15
2022-08-06T22:08:05.838Z,0.77
2022-08-06T22:10:19.255Z,0.65
2022-08-06T22:13:16.031Z,0.73
2022-08-06T22:15:47.096Z,0.70
2022-08-06T22:18:28.016Z,0.80
2022-08-06T22:20:59.437Z,0.65
2022-08-06T22:23:28.782Z,0.68
2022-08-06T22:25:56.437Z,0.80
2022-08-06T22:28:37.702Z,0.77
2022-08-06T22:31:08.333Z,1.02
2022-08-06T22:33:45.675Z,1.20
2022-08-06T22:36:34.732Z,0.50
2022-08-06T22:39:03.172Z,0.73
2022-08-06T22:41:42.768Z,0.90
2022-08-06T22:44:34.502Z,0.80
2022-08-06T22:47:05.320Z,1.10
2022-08-06T22:49:36.584Z,1.00
2022-08-06T22:52:04.732Z,0.70
2022-08-06T22:54:58.588Z,0.57
2022-08-06T22:57:22.982Z,0.63
2022-08-06T23:00:06.947Z,0.70
2022-08-06T23:02:38.167Z,0.65
2022-08-06T23:05:13.848Z,0.70
2022-08-06T23:07:53.857Z,0.65
2022-08-06T23:10:21.663Z,1.05
2022-08-06T23:12:48.400Z,0.70
2022-08-06T23:15:29.759Z,0.90
2022-08-06T23:18:04.700Z,1.02
2022-08-06T23:20:36.556Z,1.00
2022-08-06T23:23:04.606Z,1.27
2022-08-06T23:26:01.818Z,1.13
2022-08-06T23:28:18.591Z,1.25
2022-08-06T23:30:49.900Z,1.30
2022-08-06T23:33:20.256Z,1.20
2022-08-06T23:35:46.833Z,1.08
2022-08-06T23:38:33.537Z,0.90
2022-08-06T23:41:00.153Z,0.82
2022-08-06T23:43:34.409Z,1.40
2022-08-06T23:46:02.580Z,0.88
2022-08-06T23:48:30.639Z,1.30
2022-08-06T23:51:00.218Z,1.00
2022-08-06T23:54:06.865Z,0.90
2022-08-06T23:56:19.159Z,0.95
2022-08-06T23:58:49.348Z,0.85
